Time;durP1;ratioP1;P1;durP2;ratioP2;P2;SDS_P1;SDS_P2;PMS_P1;PMS_P2;Temp;Humidity;BMP_temperature;BMP_pressure;BME280_temperature;BME280_humidity;BME280_pressure;Samples;Min_cycle;Max_cycle;Signal;HPM_P1;HPM_P2
2022/01/16 00:01:19;;;;;;;29.87;23.27;;;;;;;4.00;50.51;102297.50;5050098;28;20416;-67
2022/01/16 00:06:30;;;;;;;29.95;22.50;;;;;;;3.68;51.29;102294.03;5027681;28;20412;-67
2022/01/16 00:08:57;;;;;;;31.08;24.73;;;;;;;3.58;51.49;102301.28;5050042;28;20930;-67
2022/01/16 00:11:24;;;;;;;28.90;21.83;;;;;;;3.49;51.60;102311.16;5050277;28;20416;-66
2022/01/16 00:13:52;;;;;;;26.92;21.45;;;;;;;3.40;51.80;102318.38;5050271;28;20835;-67
2022/01/16 00:16:19;;;;;;;27.33;22.48;;;;;;;3.53;51.59;102315.47;5050297;28;20484;-67
2022/01/16 00:18:53;;;;;;;28.35;23.23;;;;;;;3.55;51.63;102317.13;5049861;28;20492;-66
2022/01/16 00:21:21;;;;;;;31.05;22.80;;;;;;;3.44;52.03;102316.53;5050121;28;20471;-67
2022/01/16 00:23:49;;;;;;;28.23;22.15;;;;;;;3.47;51.82;102319.09;5050014;28;20428;-67
2022/01/16 00:26:16;;;;;;;27.48;22.30;;;;;;;3.46;52.22;102346.19;5049760;28;20500;-67
2022/01/16 00:28:43;;;;;;;26.90;21.77;;;;;;;3.57;52.12;102338.06;5050229;28;20504;-66
2022/01/16 00:31:11;;;;;;;26.52;21.42;;;;;;;3.54;52.33;102359.09;5048125;28;20436;-67
2022/01/16 00:33:42;;;;;;;24.20;19.90;;;;;;;3.52;52.60;102379.22;5049593;28;20421;-66
2022/01/16 00:36:10;;;;;;;23.37;19.00;;;;;;;3.58;52.58;102371.22;5050073;28;20498;-66
2022/01/16 00:38:39;;;;;;;23.25;18.77;;;;;;;3.54;53.01;102315.38;5049576;28;20408;-67
2022/01/16 00:41:07;;;;;;;22.00;18.37;;;;;;;3.70;52.42;102276.50;5049350;28;20420;-66
2022/01/16 00:43:34;;;;;;;24.25;19.02;;;;;;;3.75;52.13;102306.09;5049539;28;20471;-66
2022/01/16 00:46:01;;;;;;;20.65;17.52;;;;;;;3.69;52.56;102340.34;5049920;28;20416;-66
2022/01/16 00:48:30;;;;;;;19.63;17.27;;;;;;;3.79;52.12;102285.84;5048232;28;20428;-66
2022/01/16 00:50:58;;;;;;;22.05;17.63;;;;;;;3.87;51.93;102246.31;5048775;28;21326;-67
2022/01/16 00:53:25;;;;;;;20.67;17.13;;;;;;;3.92;51.89;102266.25;5049995;28;20507;-66
2022/01/16 00:55:52;;;;;;;20.73;17.45;;;;;;;3.93;51.69;102299.41;5049676;28;20491;-66
2022/01/16 00:58:20;;;;;;;21.48;17.98;;;;;;;3.83;52.17;102202.75;5049383;28;21036;-66
2022/01/16 01:00:47;;;;;;;21.15;17.95;;;;;;;3.83;51.89;102160.78;5049387;28;20508;-66
2022/01/16 01:03:15;;;;;;;22.80;18.30;;;;;;;3.92;51.75;102179.72;5049544;28;20429;-67
2022/01/16 01:05:44;;;;;;;20.92;17.85;;;;;;;3.83;51.80;102208.84;5041624;28;20416;-69
2022/01/16 01:08:11;;;;;;;21.67;17.45;;;;;;;3.76;52.28;102218.66;5040182;28;20929;-67
2022/01/16 01:10:41;;;;;;;20.77;18.13;;;;;;;3.86;51.77;102215.78;5049661;28;20413;-67
2022/01/16 01:13:11;;;;;;;20.85;16.73;;;;;;;3.74;52.08;102227.47;5049451;28;20419;-68
2022/01/16 01:15:44;;;;;;;20.30;17.43;;;;;;;3.74;52.02;102246.69;5049620;28;20492;-67
2022/01/16 01:18:11;;;;;;;20.40;17.42;;;;;;;3.70;52.34;102281.75;5049195;28;20423;-68
2022/01/16 01:20:40;;;;;;;20.00;16.70;;;;;;;3.71;52.44;102283.47;5049097;28;20470;-67
2022/01/16 01:23:10;;;;;;;19.15;16.48;;;;;;;3.80;52.27;102266.63;5049086;28;20436;-67
2022/01/16 01:25:37;;;;;;;19.90;16.63;;;;;;;3.87;51.89;102262.91;5049377;28;20437;-68
2022/01/16 01:28:07;;;;;;;19.75;16.30;;;;;;;3.82;51.70;102285.78;5049137;28;20429;-67
2022/01/16 01:30:34;;;;;;;18.42;15.63;;;;;;;3.64;52.44;102289.78;5048122;28;20767;-67
2022/01/16 01:33:01;;;;;;;21.17;17.23;;;;;;;3.71;52.27;102262.50;5049420;28;20409;-68
2022/01/16 01:35:28;;;;;;;19.52;15.20;;;;;;;3.63;52.57;102266.25;5049360;28;20515;-67
2022/01/16 01:37:55;;;;;;;18.65;15.23;;;;;;;3.64;52.62;102274.06;5049345;28;20495;-67
2022/01/16 01:40:26;;;;;;;17.65;14.23;;;;;;;3.54;52.83;102278.72;5048909;28;20416;-67
2022/01/16 01:43:17;;;;;;;17.80;14.35;;;;;;;3.59;52.86;102289.94;5049639;28;20865;-67
2022/01/16 01:51:21;;;;;;;17.63;14.00;;;;;;;3.63;52.81;102277.59;5052690;28;20412;-68
2022/01/16 01:53:51;;;;;;;16.60;13.73;;;;;;;3.75;52.48;102295.59;5052700;28;20948;-67
2022/01/16 01:56:21;;;;;;;17.63;14.07;;;;;;;3.64;52.67;102302.03;5052924;28;20503;-67
2022/01/16 01:58:48;;;;;;;15.60;13.73;;;;;;;3.64;52.69;102308.13;5052909;28;20408;-67
2022/01/16 02:01:15;;;;;;;18.42;14.80;;;;;;;3.73;52.42;102297.41;5052847;28;20482;-67
2022/01/16 02:03:43;;;;;;;16.83;14.77;;;;;;;3.66;52.47;102295.00;5052751;28;20436;-67
2022/01/16 02:06:13;;;;;;;16.30;14.13;;;;;;;3.64;52.58;102312.53;5034567;28;20419;-68
2022/01/16 02:08:42;;;;;;;16.83;14.02;;;;;;;3.56;52.89;102299.63;5052565;28;20429;-68
2022/01/16 02:11:09;;;;;;;17.30;14.37;;;;;;;3.50;52.99;102286.69;5052663;28;20554;-67
2022/01/16 02:13:47;;;;;;;15.77;13.80;;;;;;;3.55;52.77;102297.94;5052212;28;20413;-67
2022/01/16 02:32:49;;;;;;;17.10;14.68;;;;;;;3.33;53.31;102287.19;5051712;28;20416;-67
2022/01/16 02:35:15;;;;;;;16.88;13.93;;;;;;;3.27;53.44;102288.19;5051830;28;20914;-67
2022/01/16 02:37:42;;;;;;;16.90;13.97;;;;;;;3.34;53.35;102284.50;5051821;28;20413;-67
2022/01/16 02:40:19;;;;;;;15.77;13.73;;;;;;;3.46;52.95;102274.59;5052061;28;20444;-67
2022/01/16 02:42:50;;;;;;;16.70;13.55;;;;;;;3.25;53.21;102274.28;5052300;28;20413;-67
2022/01/16 02:45:28;;;;;;;18.50;14.02;;;;;;;3.36;53.20;102281.84;5052329;28;20415;-67
2022/01/16 02:47:56;;;;;;;16.48;14.00;;;;;;;3.32;53.42;102275.81;5051698;28;20449;-67
2022/01/16 02:50:23;;;;;;;17.42;14.75;;;;;;;3.23;53.40;102276.09;5051579;28;20409;-67
2022/01/16 02:52:51;;;;;;;17.70;14.43;;;;;;;3.30;53.50;102272.38;5051887;28;20419;-68
2022/01/16 02:55:21;;;;;;;16.05;13.93;;;;;;;3.26;53.47;102278.59;5050806;28;20871;-67
2022/01/16 02:57:49;;;;;;;17.77;14.27;;;;;;;3.28;53.47;102282.03;5051534;28;20412;-67
2022/01/16 03:00:17;;;;;;;16.52;14.18;;;;;;;3.25;53.36;102276.91;5051417;28;20499;-68
2022/01/16 03:02:44;;;;;;;18.00;14.20;;;;;;;3.27;53.36;102275.09;5050448;28;20499;-67
2022/01/16 03:05:14;;;;;;;19.15;14.88;;;;;;;3.16;53.46;102285.88;5051296;28;20429;-67
2022/01/16 03:07:41;;;;;;;17.60;14.40;;;;;;;3.16;53.58;102279.75;5033797;28;20512;-67
2022/01/16 03:12:53;;;;;;;20.75;16.90;;;;;;;3.19;53.55;102284.94;5047473;28;20423;-67
2022/01/16 03:15:20;;;;;;;20.00;16.55;;;;;;;3.15;53.63;102281.53;5050559;28;20397;-67
2022/01/16 03:23:19;;;;;;;17.73;15.33;;;;;;;3.12;53.83;102278.13;5050133;28;20428;-67
2022/01/16 03:25:46;;;;;;;17.50;15.05;;;;;;;3.06;53.86;102279.13;5050056;28;20419;-68
2022/01/16 03:28:15;;;;;;;19.50;15.60;;;;;;;3.17;53.59;102278.88;5050387;28;20424;-67
2022/01/16 03:30:42;;;;;;;19.58;16.27;;;;;;;3.12;53.88;102278.13;5050347;28;20503;-67
2022/01/16 03:33:09;;;;;;;18.53;15.60;;;;;;;3.09;53.67;102291.31;5049964;28;20487;-66
2022/01/16 03:35:36;;;;;;;19.73;16.35;;;;;;;3.11;53.66;102286.91;5049863;28;20787;-67
2022/01/16 03:38:04;;;;;;;33.20;26.23;;;;;;;3.09;54.02;102291.31;5050821;28;20499;-67
2022/01/16 03:40:31;;;;;;;21.60;18.45;;;;;;;3.15;53.29;102296.38;5051019;28;20488;-67
2022/01/16 03:43:09;;;;;;;46.20;41.92;;;;;;;3.16;53.60;102295.47;5050570;28;20623;-67
2022/01/16 03:45:37;;;;;;;24.67;22.20;;;;;;;3.06;53.53;102307.09;5050828;28;20412;-67
2022/01/16 03:48:04;;;;;;;24.13;21.70;;;;;;;2.97;54.17;102301.19;5050561;28;20499;-68
2022/01/16 03:50:31;;;;;;;22.60;20.30;;;;;;;3.14;53.33;102297.28;5050605;28;20590;-67
2022/01/16 03:52:59;;;;;;;20.23;17.67;;;;;;;3.11;53.33;102302.59;5050788;28;20979;-66
2022/01/16 03:55:25;;;;;;;20.98;18.15;;;;;;;3.13;53.15;102295.56;5049453;28;20977;-67
2022/01/16 03:57:52;;;;;;;19.30;16.92;;;;;;;3.05;53.55;102298.38;5051562;28;20413;-67
2022/01/16 04:00:19;;;;;;;20.50;16.88;;;;;;;3.04;53.67;102295.78;5050322;28;20420;-67
2022/01/16 04:02:48;;;;;;;20.05;17.65;;;;;;;3.08;53.46;102300.94;5050567;28;20423;-68
2022/01/16 04:05:15;;;;;;;20.63;16.60;;;;;;;3.01;53.55;102313.31;5050142;28;20436;-67
2022/01/16 04:07:42;;;;;;;19.23;17.15;;;;;;;3.09;53.54;102309.66;5033237;28;20417;-68
2022/01/16 04:10:10;;;;;;;20.07;17.07;;;;;;;3.04;53.76;102311.50;5050239;28;20416;-68
2022/01/16 04:12:39;;;;;;;19.83;16.80;;;;;;;2.98;53.85;102309.91;5050066;28;20409;-67
2022/01/16 04:18:08;;;;;;;21.20;17.27;;;;;;;3.08;53.53;102308.78;5008258;28;20428;-67
2022/01/16 04:20:35;;;;;;;20.58;18.30;;;;;;;2.93;53.98;102310.03;5008186;28;20411;-67
2022/01/16 04:23:04;;;;;;;19.15;16.33;;;;;;;3.04;53.66;102324.59;5027144;28;20412;-67
2022/01/16 04:25:31;;;;;;;21.83;19.52;;;;;;;2.89;54.19;102318.00;5050402;28;20519;-67
2022/01/16 04:27:58;;;;;;;21.10;17.98;;;;;;;2.89;54.45;102325.84;5049890;28;20416;-67
2022/01/16 04:30:25;;;;;;;18.52;15.90;;;;;;;2.90;54.31;102319.69;5049750;28;20815;-67
2022/01/16 04:32:52;;;;;;;22.42;19.52;;;;;;;3.04;53.82;102321.97;5050110;28;20499;-67
2022/01/16 04:35:21;;;;;;;19.42;17.15;;;;;;;3.06;53.78;102320.19;5049694;28;20425;-67
2022/01/16 04:37:48;;;;;;;20.42;17.83;;;;;;;3.02;53.61;102327.25;5050118;28;20412;-67
2022/01/16 04:40:16;;;;;;;23.33;21.02;;;;;;;2.94;53.98;102323.97;5049867;28;20504;-67
2022/01/16 04:45:27;;;;;;;18.10;16.20;;;;;;;2.89;54.25;102323.22;5049588;28;20990;-67
2022/01/16 04:47:55;;;;;;;18.15;16.02;;;;;;;3.04;53.64;102309.72;5049463;28;20860;-68
2022/01/16 04:50:25;;;;;;;20.20;18.05;;;;;;;3.00;53.79;102305.47;5049746;28;20404;-67
2022/01/16 04:52:52;;;;;;;21.27;18.95;;;;;;;2.91;53.99;102305.72;5049126;28;20408;-68
2022/01/16 04:55:23;;;;;;;19.77;17.67;;;;;;;3.06;53.72;102307.09;5049408;28;20413;-67
2022/01/16 04:57:50;;;;;;;19.42;16.80;;;;;;;3.05;53.71;102302.75;5049353;28;20424;-67
2022/01/16 05:00:17;;;;;;;19.73;17.63;;;;;;;2.99;53.71;102296.78;5049647;28;20500;-68
2022/01/16 05:02:44;;;;;;;19.90;17.77;;;;;;;3.02;53.46;102298.44;5048425;28;20451;-67
2022/01/16 05:05:12;;;;;;;20.37;18.17;;;;;;;2.93;53.82;102294.31;5049055;28;20428;-68
2022/01/16 05:07:41;;;;;;;25.13;21.90;;;;;;;2.64;54.88;102291.59;5032443;28;20420;-67
2022/01/16 05:10:08;;;;;;;26.77;23.27;;;;;;;2.93;54.05;102288.22;5049560;28;20412;-67
2022/01/16 05:12:38;;;;;;;25.70;19.38;;;;;;;2.85;53.87;102288.41;5049280;28;20918;-67
2022/01/16 05:17:51;;;;;;;24.33;19.73;;;;;;;2.55;54.94;102287.41;5050196;28;20535;-68
2022/01/16 05:20:18;;;;;;;29.40;25.67;;;;;;;2.66;54.57;102289.78;5052400;28;20416;-67
2022/01/16 05:22:46;;;;;;;29.77;23.80;;;;;;;2.74;54.45;102293.06;5053348;28;20415;-67
2022/01/16 05:25:16;;;;;;;29.48;21.92;;;;;;;2.76;54.24;102292.13;5053162;28;20511;-68
2022/01/16 05:27:43;;;;;;;28.65;21.33;;;;;;;2.69;54.12;102290.56;5053016;28;20460;-66
2022/01/16 05:30:10;;;;;;;32.58;24.73;;;;;;;2.78;54.22;102289.47;5051920;28;20902;-68
2022/01/16 05:32:38;;;;;;;32.15;27.52;;;;;;;2.90;53.66;102294.41;5052926;28;20430;-68
2022/01/16 05:35:06;;;;;;;35.03;31.58;;;;;;;2.96;53.62;102296.88;5052946;28;20853;-68
2022/01/16 05:37:33;;;;;;;26.75;21.92;;;;;;;2.94;53.54;102306.53;5052992;28;20958;-67
2022/01/16 05:40:01;;;;;;;25.43;21.43;;;;;;;2.99;53.36;102309.88;5053035;28;21405;-68
2022/01/16 05:42:29;;;;;;;26.43;23.23;;;;;;;2.80;53.92;102312.09;5052682;28;20877;-67
2022/01/16 05:44:56;;;;;;;24.58;20.55;;;;;;;2.86;53.33;102316.31;5052825;28;20454;-67
2022/01/16 05:47:23;;;;;;;24.73;20.38;;;;;;;2.80;53.97;102311.25;5053240;28;20408;-67
2022/01/16 05:49:50;;;;;;;25.90;21.00;;;;;;;2.50;54.68;102308.47;5053329;28;20424;-67
2022/01/16 05:52:17;;;;;;;27.77;20.95;;;;;;;2.66;54.70;102308.97;5052476;28;20507;-68
2022/01/16 05:54:44;;;;;;;23.52;20.42;;;;;;;2.82;54.30;102317.31;5052451;28;20474;-67
2022/01/16 05:57:12;;;;;;;29.33;22.73;;;;;;;2.67;54.84;102315.91;5051470;28;20413;-67
2022/01/16 05:59:39;;;;;;;35.53;27.27;;;;;;;2.97;54.12;102316.91;5052584;28;20408;-67
2022/01/16 06:02:06;;;;;;;32.67;27.13;;;;;;;3.09;54.71;102314.88;5052717;28;20487;-68
2022/01/16 06:04:33;;;;;;;36.80;28.40;;;;;;;3.23;53.23;102317.13;5052305;28;20536;-67
2022/01/16 06:07:00;;;;;;;27.02;22.23;;;;;;;3.39;53.29;102321.91;5035241;28;20415;-68
2022/01/16 06:09:27;;;;;;;23.83;19.63;;;;;;;4.43;50.61;102325.03;5052269;28;20440;-68
2022/01/16 06:11:55;;;;;;;24.00;18.83;;;;;;;5.35;48.52;102332.50;5052585;28;20423;-67
2022/01/16 06:14:25;;;;;;;25.20;18.88;;;;;;;6.39;45.97;102332.19;5052307;28;20413;-68
2022/01/16 06:16:52;;;;;;;20.65;15.88;;;;;;;7.15;44.17;102332.59;5052334;28;20962;-68
2022/01/16 06:19:19;;;;;;;24.27;17.90;;;;;;;8.10;41.83;102332.78;5052586;28;20421;-68
2022/01/16 06:21:46;;;;;;;22.25;18.55;;;;;;;9.22;39.67;102345.84;5052158;28;20508;-68
2022/01/16 06:24:14;;;;;;;22.87;18.10;;;;;;;10.32;37.34;102346.22;5051981;28;20997;-67
2022/01/16 06:26:41;;;;;;;19.40;16.30;;;;;;;10.86;36.31;102337.88;5052026;28;20834;-68
2022/01/16 06:29:08;;;;;;;19.83;16.10;;;;;;;11.81;34.55;102338.31;5051264;28;21086;-68
2022/01/16 06:31:37;;;;;;;18.95;16.95;;;;;;;13.05;32.69;102341.03;5051799;28;20798;-68
2022/01/16 06:34:06;;;;;;;19.92;16.15;;;;;;;13.77;31.01;102350.25;5051960;28;20580;-68
2022/01/16 06:36:34;;;;;;;23.35;18.40;;;;;;;14.82;29.42;102359.59;5052278;28;20421;-68
2022/01/16 06:39:01;;;;;;;27.00;20.98;;;;;;;15.64;27.85;102366.69;5051921;28;20413;-69
2022/01/16 06:41:28;;;;;;;28.00;21.58;;;;;;;16.47;26.57;102369.97;5052177;28;20418;-69
2022/01/16 06:43:55;;;;;;;31.55;23.83;;;;;;;17.23;25.50;102376.13;5052004;28;20811;-69
2022/01/16 06:46:22;;;;;;;33.50;29.85;;;;;;;18.00;24.85;102375.75;5051679;28;20945;-69
2022/01/16 06:48:51;;;;;;;53.63;46.03;;;;;;;19.14;23.22;102378.91;5051796;28;20611;-70
2022/01/16 06:51:19;;;;;;;60.78;54.40;;;;;;;19.31;22.63;102373.78;5051525;28;20838;-69
2022/01/16 06:53:47;;;;;;;47.08;42.75;;;;;;;20.10;21.94;102372.56;5051847;28;20413;-69
2022/01/16 06:56:14;;;;;;;30.85;27.85;;;;;;;20.85;21.15;102375.06;5051740;28;20420;-69
2022/01/16 06:58:41;;;;;;;23.05;20.65;;;;;;;21.79;19.77;102371.72;5051494;28;20515;-69
2022/01/16 07:01:09;;;;;;;19.30;17.40;;;;;;;22.45;19.44;102372.84;5051623;28;20420;-69
2022/01/16 07:03:36;;;;;;;19.05;17.15;;;;;;;22.56;18.80;102377.06;5052819;28;20487;-69
2022/01/16 07:06:05;;;;;;;18.08;16.33;;;;;;;23.33;18.16;102379.47;5033009;28;20437;-73
2022/01/16 07:08:32;;;;;;;22.63;20.35;;;;;;;24.12;17.11;102379.63;5030780;28;20410;-69
2022/01/16 07:11:00;;;;;;;17.73;15.95;;;;;;;24.56;17.05;102387.19;5031519;28;20938;-69
2022/01/16 07:13:29;;;;;;;23.40;21.05;;;;;;;25.41;16.44;102393.50;5031336;28;20427;-70
2022/01/16 07:15:56;;;;;;;21.85;19.75;;;;;;;26.06;15.93;102398.19;5031354;28;20420;-69
2022/01/16 07:18:24;;;;;;;16.52;14.82;;;;;;;26.23;15.56;102393.38;5031349;28;20414;-67
2022/01/16 07:20:51;;;;;;;16.93;14.77;;;;;;;26.68;15.49;102393.28;5031240;28;20426;-67
2022/01/16 07:23:19;;;;;;;14.60;13.10;;;;;;;26.79;15.00;102387.34;5031458;28;20596;-67
2022/01/16 07:25:47;;;;;;;13.10;11.82;;;;;;;26.84;14.55;102387.56;5031074;28;20892;-68
2022/01/16 07:28:15;;;;;;;12.32;11.13;;;;;;;27.52;14.17;102389.84;5031258;28;20437;-68
2022/01/16 07:30:42;;;;;;;11.60;10.57;;;;;;;27.62;14.50;102392.19;5031394;28;20517;-68
2022/01/16 07:33:10;;;;;;;10.75;9.35;;;;;;;27.94;13.81;102383.41;5031042;28;20419;-68
2022/01/16 07:35:38;;;;;;;13.00;11.80;;;;;;;28.75;13.26;102373.56;5030903;28;20504;-69
2022/01/16 07:38:06;;;;;;;14.82;13.32;;;;;;;29.06;13.26;102386.59;5030828;28;20410;-68
2022/01/16 07:40:35;;;;;;;19.48;16.25;;;;;;;29.17;13.19;102382.41;5030599;28;20422;-68
2022/01/16 07:43:02;;;;;;;14.13;12.60;;;;;;;28.61;13.19;102391.81;5030748;28;20875;-68
2022/01/16 07:45:30;;;;;;;13.43;11.70;;;;;;;29.28;12.95;102392.72;5030921;28;20434;-70
2022/01/16 07:47:56;;;;;;;13.50;12.02;;;;;;;29.01;13.26;102391.00;5030912;28;20414;-67
2022/01/16 07:50:25;;;;;;;16.13;14.13;;;;;;;30.19;12.33;102388.25;5030993;28;20505;-68
2022/01/16 07:52:51;;;;;;;12.70;11.33;;;;;;;30.40;12.02;102376.19;5030643;28;20493;-69
2022/01/16 07:55:22;;;;;;;11.80;10.55;;;;;;;30.40;11.93;102381.66;5030505;28;20422;-71
2022/01/16 07:57:51;;;;;;;12.13;10.82;;;;;;;30.59;11.97;102385.31;5029479;28;20418;-69
2022/01/16 08:00:18;;;;;;;13.95;12.45;;;;;;;31.38;11.49;102395.84;5030313;28;20513;-70
2022/01/16 08:02:45;;;;;;;12.05;10.80;;;;;;;31.73;11.24;102391.50;5030648;28;20418;-69
2022/01/16 08:05:12;;;;;;;12.43;11.23;;;;;;;31.86;11.04;102395.16;5030336;28;20434;-67
2022/01/16 08:07:39;;;;;;;15.70;11.93;;;;;;;30.21;11.80;102380.69;5030957;28;20922;-70
2022/01/16 08:10:07;;;;;;;13.90;11.90;;;;;;;31.48;11.29;102385.25;5050203;28;20536;-70
2022/01/16 08:12:35;;;;;;;17.88;15.98;;;;;;;31.44;11.15;102368.44;5050151;28;20503;-70
2022/01/16 08:15:04;;;;;;;17.73;15.65;;;;;;;32.31;10.64;102362.72;5050322;28;20503;-68
2022/01/16 08:17:31;;;;;;;16.80;12.07;;;;;;;32.12;10.87;102361.94;5050065;28;20491;-67
2022/01/16 08:19:59;;;;;;;14.45;11.82;;;;;;;33.71;9.79;102387.00;5050353;28;20509;-67
2022/01/16 08:22:26;;;;;;;13.20;11.43;;;;;;;33.32;9.99;102379.28;5049906;28;20914;-67
2022/01/16 08:24:53;;;;;;;17.52;14.55;;;;;;;32.89;10.19;102369.47;5049817;28;20417;-68
2022/01/16 08:27:20;;;;;;;15.13;12.20;;;;;;;34.36;9.31;102365.75;5049893;28;20408;-67
2022/01/16 08:29:47;;;;;;;11.90;10.30;;;;;;;32.72;10.19;102374.78;5049916;28;20495;-69
2022/01/16 08:32:16;;;;;;;12.10;10.48;;;;;;;34.84;9.16;102361.66;5049927;28;20492;-68
2022/01/16 08:34:43;;;;;;;11.15;9.70;;;;;;;34.95;9.13;102357.97;5048782;28;20470;-72
2022/01/16 08:37:10;;;;;;;12.82;9.73;;;;;;;34.80;9.26;102352.25;5047629;28;20830;-69
2022/01/16 08:39:37;;;;;;;12.65;10.38;;;;;;;34.85;8.95;102344.88;5049372;28;20503;-68
2022/01/16 08:42:05;;;;;;;12.25;10.98;;;;;;;34.38;9.13;102339.66;5049356;28;20989;-70
2022/01/16 08:44:31;;;;;;;12.55;10.73;;;;;;;34.08;9.16;102346.22;5048410;28;20504;-69
2022/01/16 08:46:58;;;;;;;12.82;11.50;;;;;;;35.05;8.56;102349.03;5048699;28;20511;-66
2022/01/16 08:49:27;;;;;;;13.40;10.83;;;;;;;34.85;8.69;102346.78;5049779;28;20499;-68
2022/01/16 08:51:55;;;;;;;10.70;9.00;;;;;;;34.63;8.55;102338.44;5049561;28;20420;-68
2022/01/16 08:54:22;;;;;;;12.38;11.07;;;;;;;35.69;8.21;102337.56;5046683;28;20926;-69
2022/01/16 08:56:49;;;;;;;14.18;10.35;;;;;;;34.10;8.85;102343.25;5049368;28;20503;-69
2022/01/16 08:59:16;;;;;;;12.05;10.85;;;;;;;34.80;8.68;102341.22;5049088;28;20432;-69
2022/01/16 09:01:42;;;;;;;11.52;10.38;;;;;;;35.34;8.40;102341.47;5049247;28;20859;-69
2022/01/16 09:04:09;;;;;;;14.07;11.52;;;;;;;35.83;8.07;102341.59;5048957;28;20404;-69
2022/01/16 09:06:38;;;;;;;12.13;10.43;;;;;;;36.09;7.98;102337.19;5031537;28;20429;-69
2022/01/16 09:09:05;;;;;;;13.07;11.68;;;;;;;35.15;8.17;102329.94;5049442;28;20412;-69
2022/01/16 09:11:32;;;;;;;13.90;11.40;;;;;;;35.77;8.03;102325.22;5049512;28;20435;-69
2022/01/16 09:13:59;;;;;;;13.13;9.82;;;;;;;36.25;7.83;102318.84;5049149;28;20798;-69
2022/01/16 09:16:26;;;;;;;11.13;8.43;;;;;;;36.69;7.42;102321.44;5048991;28;20416;-68
2022/01/16 09:18:53;;;;;;;10.48;9.07;;;;;;;36.74;7.69;102323.41;5048082;28;20472;-69
2022/01/16 09:21:20;;;;;;;14.15;12.63;;;;;;;37.68;7.02;102330.03;5047180;28;20416;-69
2022/01/16 09:23:50;;;;;;;11.43;10.30;;;;;;;37.02;7.43;102324.16;5048758;28;20503;-69
2022/01/16 09:26:18;;;;;;;10.70;9.32;;;;;;;37.99;6.79;102307.97;5049167;28;20433;-69
2022/01/16 09:28:45;;;;;;;10.55;9.55;;;;;;;37.86;6.41;102314.06;5048964;28;20459;-69
2022/01/16 09:31:13;;;;;;;9.65;8.75;;;;;;;36.63;7.25;102305.13;5048924;28;20416;-69
2022/01/16 09:33:40;;;;;;;13.27;12.07;;;;;;;36.62;7.35;102295.13;5048819;28;20940;-70
2022/01/16 09:36:08;;;;;;;11.38;10.27;;;;;;;36.43;7.57;102294.72;5048822;28;20496;-68
2022/01/16 09:38:37;;;;;;;11.07;9.98;;;;;;;36.31;7.29;102292.13;5048862;28;20427;-69
2022/01/16 09:41:06;;;;;;;10.98;9.40;;;;;;;36.13;7.13;102284.22;5047661;28;20556;-68
2022/01/16 09:43:34;;;;;;;10.07;7.45;;;;;;;35.52;7.24;102287.97;5048790;28;20550;-69
2022/01/16 09:46:02;;;;;;;7.63;6.80;;;;;;;35.45;7.37;102284.59;5048179;28;20560;-68
2022/01/16 09:48:29;;;;;;;9.85;8.68;;;;;;;35.87;7.37;102279.31;5048485;28;20448;-67
2022/01/16 09:50:56;;;;;;;7.68;6.93;;;;;;;36.04;7.33;102275.59;5048756;28;20444;-68
2022/01/16 09:53:24;;;;;;;11.82;10.55;;;;;;;36.04;7.33;102272.84;5048983;28;20418;-68
2022/01/16 09:55:51;;;;;;;12.45;11.05;;;;;;;35.16;7.30;102289.44;5048723;28;20448;-67
2022/01/16 09:58:21;;;;;;;10.50;9.50;;;;;;;35.61;7.38;102285.59;5048706;28;20497;-67
2022/01/16 10:00:48;;;;;;;10.73;8.63;;;;;;;35.18;7.30;102281.75;5048814;28;20420;-68
2022/01/16 10:03:34;;;;;;;10.13;9.05;;;;;;;35.87;7.06;102282.06;5048876;28;20492;-67
2022/01/16 10:06:14;;;;;;;9.75;8.63;;;;;;;35.24;7.26;102275.22;5035908;28;21198;-71
2022/01/16 10:08:42;;;;;;;12.48;11.20;;;;;;;35.99;6.61;102268.13;5052640;28;20423;-68
2022/01/16 10:11:34;;;;;;;10.40;9.40;;;;;;;36.32;6.85;102268.13;5051090;28;20945;-69
2022/01/16 10:14:11;;;;;;;13.57;12.18;;;;;;;36.34;6.93;102261.28;5050540;28;20431;-68
2022/01/16 10:16:40;;;;;;;10.00;8.60;;;;;;;34.80;7.73;102259.47;5052220;28;20451;-69
2022/01/16 10:19:21;;;;;;;10.80;8.67;;;;;;;34.50;7.94;102244.13;5051696;28;20865;-70
2022/01/16 10:21:48;;;;;;;13.13;11.48;;;;;;;34.66;7.70;102252.66;5050404;28;20417;-68
2022/01/16 10:24:17;;;;;;;12.68;10.30;;;;;;;35.14;7.65;102256.63;5051989;28;20496;-69
2022/01/16 10:26:44;;;;;;;11.07;9.15;;;;;;;34.74;7.38;102254.97;5050770;28;20424;-69
2022/01/16 10:29:17;;;;;;;11.52;10.32;;;;;;;34.61;7.42;102253.38;5050047;28;20455;-70
2022/01/16 10:31:44;;;;;;;10.48;9.38;;;;;;;33.88;7.81;102247.75;5051926;28;20463;-69
2022/01/16 10:34:28;;;;;;;10.75;9.25;;;;;;;34.15;7.89;102238.88;5051983;28;20898;-68
2022/01/16 10:36:55;;;;;;;9.40;7.65;;;;;;;33.60;8.08;102240.31;5050731;28;20416;-69
2022/01/16 10:39:22;;;;;;;9.25;8.35;;;;;;;33.17;8.23;102236.13;5051279;28;20986;-68
2022/01/16 10:42:15;;;;;;;12.30;10.20;;;;;;;33.93;8.29;102233.25;5051345;28;20456;-68
2022/01/16 10:44:43;;;;;;;11.65;10.45;;;;;;;33.27;8.34;102230.88;5052174;28;20498;-68
2022/01/16 10:47:34;;;;;;;8.35;7.40;;;;;;;32.25;8.53;102218.31;5050459;28;20440;-68
2022/01/16 10:50:08;;;;;;;11.15;9.75;;;;;;;31.80;8.88;102204.28;5051247;28;20448;-68
2022/01/16 10:52:57;;;;;;;11.82;10.30;;;;;;;33.15;8.61;102213.56;5051358;28;20539;-69
2022/01/16 10:55:33;;;;;;;9.90;8.50;;;;;;;32.61;8.80;102211.00;5048588;28;20780;-68
2022/01/16 10:58:05;;;;;;;13.35;11.95;;;;;;;33.02;8.56;102200.09;5051433;28;20802;-69
2022/01/16 11:00:34;;;;;;;11.45;10.27;;;;;;;32.80;8.36;102200.72;5051859;28;20409;-68
2022/01/16 11:03:04;;;;;;;10.88;9.82;;;;;;;32.24;8.64;102199.38;5051744;28;20404;-68
2022/01/16 11:05:35;;;;;;;10.10;9.10;;;;;;;31.49;9.29;102185.09;5051166;28;20775;-68
2022/01/16 11:08:04;;;;;;;11.38;10.23;;;;;;;32.03;8.86;102185.16;5037756;28;20491;-68
2022/01/16 11:10:32;;;;;;;9.18;8.27;;;;;;;31.79;9.04;102178.75;5051564;28;20491;-68
2022/01/16 11:13:01;;;;;;;12.93;8.68;;;;;;;31.80;8.98;102172.22;5051574;28;20423;-68
2022/01/16 11:15:29;;;;;;;9.73;8.48;;;;;;;31.03;9.40;102171.97;5050514;28;20412;-68
2022/01/16 11:17:57;;;;;;;9.73;7.20;;;;;;;30.96;9.55;102174.78;5051338;28;20409;-68
2022/01/16 11:20:29;;;;;;;7.97;6.60;;;;;;;30.42;9.49;102177.22;5050968;28;20922;-68
2022/01/16 11:23:06;;;;;;;10.23;9.30;;;;;;;29.25;10.10;102176.69;5049600;28;20417;-69
2022/01/16 11:25:36;;;;;;;11.65;10.05;;;;;;;28.87;10.65;102178.22;5050470;28;20968;-67
2022/01/16 11:28:07;;;;;;;8.98;7.00;;;;;;;27.83;11.34;102173.41;5051195;28;20468;-68
2022/01/16 11:30:37;;;;;;;10.95;8.45;;;;;;;28.26;11.23;102160.25;5049498;28;20470;-67
2022/01/16 11:33:07;;;;;;;7.63;6.70;;;;;;;27.54;11.47;102159.09;5050109;28;20499;-68
2022/01/16 11:35:36;;;;;;;7.53;5.93;;;;;;;27.02;11.72;102155.09;5050461;28;20795;-68
2022/01/16 11:38:04;;;;;;;8.77;7.88;;;;;;;26.35;12.36;102157.34;5050008;28;20574;-69
2022/01/16 11:40:41;;;;;;;12.93;10.13;;;;;;;25.88;12.38;102166.94;5050510;28;20413;-68
2022/01/16 11:43:16;;;;;;;8.65;6.93;;;;;;;25.47;13.14;102160.25;5050559;28;20423;-68
2022/01/16 11:45:51;;;;;;;10.02;7.50;;;;;;;24.32;13.89;102150.66;5050468;28;20503;-68
2022/01/16 11:48:34;;;;;;;8.23;6.32;;;;;;;22.79;15.10;102150.34;5050331;28;20508;-68
2022/01/16 11:51:01;;;;;;;12.57;8.80;;;;;;;21.79;15.67;102148.66;5050675;28;20417;-68
2022/01/16 11:54:08;;;;;;;8.85;6.80;;;;;;;21.48;16.27;102144.88;5049192;28;20929;-68
2022/01/16 11:56:52;;;;;;;11.95;9.23;;;;;;;20.72;16.85;102130.38;5050389;28;20500;-68
2022/01/16 11:59:21;;;;;;;13.73;10.60;;;;;;;20.19;17.28;102119.59;5048847;28;20417;-69
2022/01/16 12:01:51;;;;;;;15.00;11.45;;;;;;;19.43;18.41;102128.06;5049352;28;20413;-67
2022/01/16 12:05:03;;;;;;;14.50;9.90;;;;;;;18.33;19.51;102131.41;5050411;28;20411;-67
2022/01/16 12:07:47;;;;;;;14.30;9.65;;;;;;;17.52;21.26;102123.63;5043046;28;20534;-68